Claymont, Delaware
Current Conditions -  °F | °C
As of 3:51 PM on Friday 31 Oct 2014 (Local Time) from KILG Reporting Station
Overcast Overcast  
Wind Chill: 53°   Ceiling: 4900
Heat Index: 53°   Visibility: 10mi
Dew Point: 37°   Wind: 12mph
Humidity: 55%   Direction: 40°NE
Pressure: 29.89"   Gusts: NA
Location:  39.8°N, 75.46°W
Report Text: KILG 311951Z 04010KT 10SM OVC049 12/03 A2989 RMK AO2 SLP121 T01170028
Loading
Personal Weather Stations






























Interactive Weather Map
Tropical Storm Tracking
New forecast layout! Learn more

10-Day Weather Forecast

Advertisements
Track Severe Weather on mobile